sensor_id;sensor_type;location;lat;lon;timestamp;temperature;humidity
8253;DHT22;61313;48.396;10.008;2022-10-22T00:00:12;14.90;1.00
8253;DHT22;61313;48.396;10.008;2022-10-22T00:02:38;14.90;1.00
8253;DHT22;61313;48.396;10.008;2022-10-22T00:05:04;14.90;1.00
8253;DHT22;61313;48.396;10.008;2022-10-22T00:07:30;14.90;1.00
8253;DHT22;61313;48.396;10.008;2022-10-22T00:09:56;14.90;1.00
8253;DHT22;61313;48.396;10.008;2022-10-22T00:12:22;14.90;1.00
8253;DHT22;61313;48.396;10.008;2022-10-22T00:14:47;14.90;1.00
8253;DHT22;61313;48.396;10.008;2022-10-22T00:17:14;14.90;1.00
8253;DHT22;61313;48.396;10.008;2022-10-22T00:19:40;14.90;1.00
8253;DHT22;61313;48.396;10.008;2022-10-22T00:22:06;14.90;1.00
8253;DHT22;61313;48.396;10.008;2022-10-22T00:24:33;14.90;1.00
8253;DHT22;61313;48.396;10.008;2022-10-22T00:26:59;14.90;1.00
8253;DHT22;61313;48.396;10.008;2022-10-22T00:29:25;14.80;1.00
8253;DHT22;61313;48.396;10.008;2022-10-22T00:31:51;14.80;1.00
8253;DHT22;61313;48.396;10.008;2022-10-22T00:34:17;14.70;1.00
8253;DHT22;61313;48.396;10.008;2022-10-22T00:36:44;14.80;1.00
8253;DHT22;61313;48.396;10.008;2022-10-22T00:39:11;14.70;1.00
8253;DHT22;61313;48.396;10.008;2022-10-22T00:41:38;14.70;1.00
8253;DHT22;61313;48.396;10.008;2022-10-22T00:44:04;14.70;1.00
8253;DHT22;61313;48.396;10.008;2022-10-22T00:46:31;14.70;1.00
8253;DHT22;61313;48.396;10.008;2022-10-22T00:48:59;14.70;1.00
8253;DHT22;61313;48.396;10.008;2022-10-22T00:51:29;14.70;1.00
8253;DHT22;61313;48.396;10.008;2022-10-22T00:54:02;14.70;1.00
8253;DHT22;61313;48.396;10.008;2022-10-22T00:56:29;14.60;1.00
8253;DHT22;61313;48.396;10.008;2022-10-22T00:58:58;14.60;1.00
8253;DHT22;61313;48.396;10.008;2022-10-22T01:01:28;14.60;1.00
8253;DHT22;61313;48.396;10.008;2022-10-22T01:03:54;14.60;1.00
8253;DHT22;61313;48.396;10.008;2022-10-22T01:06:24;14.50;1.00
8253;DHT22;61313;48.396;10.008;2022-10-22T01:17:11;14.50;1.00
8253;DHT22;61313;48.396;10.008;2022-10-22T01:29:01;14.40;1.00
8253;DHT22;61313;48.396;10.008;2022-10-22T01:31:37;14.40;1.00
8253;DHT22;61313;48.396;10.008;2022-10-22T01:34:05;14.40;1.00
8253;DHT22;61313;48.396;10.008;2022-10-22T01:36:34;14.30;1.00
8253;DHT22;61313;48.396;10.008;2022-10-22T01:39:01;14.30;1.00
8253;DHT22;61313;48.396;10.008;2022-10-22T01:41:30;14.30;1.00
8253;DHT22;61313;48.396;10.008;2022-10-22T01:43:55;14.20;1.00
8253;DHT22;61313;48.396;10.008;2022-10-22T01:46:23;14.20;1.00
8253;DHT22;61313;48.396;10.008;2022-10-22T01:49:24;14.20;1.00
8253;DHT22;61313;48.396;10.008;2022-10-22T01:54:33;14.20;1.00
8253;DHT22;61313;48.396;10.008;2022-10-22T01:57:38;14.20;1.00
8253;DHT22;61313;48.396;10.008;2022-10-22T02:00:09;14.30;1.00
8253;DHT22;61313;48.396;10.008;2022-10-22T02:05:31;14.30;1.00
8253;DHT22;61313;48.396;10.008;2022-10-22T02:08:02;14.30;1.00
8253;DHT22;61313;48.396;10.008;2022-10-22T02:10:30;14.20;1.00
8253;DHT22;61313;48.396;10.008;2022-10-22T02:12:57;14.20;1.00
8253;DHT22;61313;48.396;10.008;2022-10-22T02:15:26;14.20;1.00
8253;DHT22;61313;48.396;10.008;2022-10-22T02:17:55;14.20;1.00
8253;DHT22;61313;48.396;10.008;2022-10-22T02:20:28;14.10;1.00
8253;DHT22;61313;48.396;10.008;2022-10-22T02:22:55;14.10;1.00
8253;DHT22;61313;48.396;10.008;2022-10-22T02:25:24;14.10;1.00
8253;DHT22;61313;48.396;10.008;2022-10-22T02:30:35;14.00;1.00
8253;DHT22;61313;48.396;10.008;2022-10-22T02:33:15;14.10;1.00
8253;DHT22;61313;48.396;10.008;2022-10-22T02:35:42;14.10;1.00
8253;DHT22;61313;48.396;10.008;2022-10-22T02:38:10;14.10;1.00
8253;DHT22;61313;48.396;10.008;2022-10-22T02:40:37;14.00;1.00
8253;DHT22;61313;48.396;10.008;2022-10-22T02:43:04;14.00;1.00
8253;DHT22;61313;48.396;10.008;2022-10-22T02:45:30;14.00;1.00
8253;DHT22;61313;48.396;10.008;2022-10-22T02:47:56;14.00;1.00
8253;DHT22;61313;48.396;10.008;2022-10-22T02:50:21;13.90;1.00
8253;DHT22;61313;48.396;10.008;2022-10-22T02:52:47;13.90;1.00
8253;DHT22;61313;48.396;10.008;2022-10-22T02:55:13;13.90;1.00
8253;DHT22;61313;48.396;10.008;2022-10-22T02:57:39;13.90;1.00
8253;DHT22;61313;48.396;10.008;2022-10-22T03:00:06;14.00;1.00
8253;DHT22;61313;48.396;10.008;2022-10-22T03:02:32;13.90;1.00
8253;DHT22;61313;48.396;10.008;2022-10-22T03:04:58;13.90;1.00
8253;DHT22;61313;48.396;10.008;2022-10-22T03:07:23;13.90;1.00
8253;DHT22;61313;48.396;10.008;2022-10-22T03:09:49;13.80;1.00
8253;DHT22;61313;48.396;10.008;2022-10-22T03:12:15;13.80;1.00
8253;DHT22;61313;48.396;10.008;2022-10-22T03:14:41;13.80;1.00
8253;DHT22;61313;48.396;10.008;2022-10-22T03:17:06;13.80;1.00
8253;DHT22;61313;48.396;10.008;2022-10-22T03:19:32;13.80;1.00
8253;DHT22;61313;48.396;10.008;2022-10-22T03:22:02;13.70;1.00
8253;DHT22;61313;48.396;10.008;2022-10-22T03:24:40;13.80;1.00
8253;DHT22;61313;48.396;10.008;2022-10-22T03:27:07;13.80;1.00
8253;DHT22;61313;48.396;10.008;2022-10-22T03:29:36;13.80;1.00
8253;DHT22;61313;48.396;10.008;2022-10-22T03:32:02;13.80;1.00
8253;DHT22;61313;48.396;10.008;2022-10-22T03:34:28;13.90;1.00
8253;DHT22;61313;48.396;10.008;2022-10-22T03:36:55;13.80;1.00
8253;DHT22;61313;48.396;10.008;2022-10-22T03:39:22;13.80;1.00
8253;DHT22;61313;48.396;10.008;2022-10-22T03:41:50;13.80;1.00
8253;DHT22;61313;48.396;10.008;2022-10-22T03:44:17;13.70;1.00
8253;DHT22;61313;48.396;10.008;2022-10-22T03:46:43;13.70;1.00
8253;DHT22;61313;48.396;10.008;2022-10-22T03:49:09;13.70;1.00
8253;DHT22;61313;48.396;10.008;2022-10-22T03:51:34;13.60;1.00
8253;DHT22;61313;48.396;10.008;2022-10-22T03:54:01;13.70;1.00
8253;DHT22;61313;48.396;10.008;2022-10-22T03:56:27;13.70;1.00
8253;DHT22;61313;48.396;10.008;2022-10-22T03:58:55;13.70;1.00
8253;DHT22;61313;48.396;10.008;2022-10-22T04:01:22;13.70;1.00
8253;DHT22;61313;48.396;10.008;2022-10-22T04:03:48;13.70;1.00
8253;DHT22;61313;48.396;10.008;2022-10-22T04:06:14;13.70;1.00
8253;DHT22;61313;48.396;10.008;2022-10-22T04:08:41;13.70;1.00
8253;DHT22;61313;48.396;10.008;2022-10-22T04:11:08;13.70;1.00
8253;DHT22;61313;48.396;10.008;2022-10-22T04:13:34;13.70;1.00
8253;DHT22;61313;48.396;10.008;2022-10-22T04:16:08;13.70;1.00
8253;DHT22;61313;48.396;10.008;2022-10-22T04:18:34;13.70;1.00
8253;DHT22;61313;48.396;10.008;2022-10-22T04:21:00;13.80;1.00
8253;DHT22;61313;48.396;10.008;2022-10-22T04:23:25;13.70;1.00
8253;DHT22;61313;48.396;10.008;2022-10-22T04:26:00;13.70;1.00
8253;DHT22;61313;48.396;10.008;2022-10-22T04:28:26;13.70;1.00
8253;DHT22;61313;48.396;10.008;2022-10-22T04:30:51;13.70;1.00
8253;DHT22;61313;48.396;10.008;2022-10-22T04:33:17;13.70;1.00
8253;DHT22;61313;48.396;10.008;2022-10-22T04:35:43;13.60;1.00
8253;DHT22;61313;48.396;10.008;2022-10-22T04:38:08;13.60;1.00
8253;DHT22;61313;48.396;10.008;2022-10-22T04:40:34;13.60;1.00
8253;DHT22;61313;48.396;10.008;2022-10-22T04:43:00;13.50;1.00
8253;DHT22;61313;48.396;10.008;2022-10-22T04:45:25;13.60;1.00
8253;DHT22;61313;48.396;10.008;2022-10-22T04:47:51;13.60;1.00
8253;DHT22;61313;48.396;10.008;2022-10-22T04:50:17;13.60;1.00
8253;DHT22;61313;48.396;10.008;2022-10-22T04:52:43;13.60;1.00
8253;DHT22;61313;48.396;10.008;2022-10-22T04:55:09;13.50;1.00
8253;DHT22;61313;48.396;10.008;2022-10-22T04:57:34;13.50;1.00
8253;DHT22;61313;48.396;10.008;2022-10-22T05:00:00;13.60;1.00
8253;DHT22;61313;48.396;10.008;2022-10-22T05:02:26;13.60;1.00
8253;DHT22;61313;48.396;10.008;2022-10-22T05:04:52;13.70;1.00
8253;DHT22;61313;48.396;10.008;2022-10-22T05:07:17;13.70;1.00
8253;DHT22;61313;48.396;10.008;2022-10-22T05:09:43;13.60;1.00
8253;DHT22;61313;48.396;10.008;2022-10-22T05:12:09;13.60;1.00
8253;DHT22;61313;48.396;10.008;2022-10-22T05:14:34;13.60;1.00
8253;DHT22;61313;48.396;10.008;2022-10-22T05:17:00;13.60;1.00
8253;DHT22;61313;48.396;10.008;2022-10-22T05:19:28;13.60;1.00
8253;DHT22;61313;48.396;10.008;2022-10-22T05:21:56;13.50;1.00
8253;DHT22;61313;48.396;10.008;2022-10-22T05:24:23;13.60;1.00
8253;DHT22;61313;48.396;10.008;2022-10-22T05:26:50;13.60;1.00
8253;DHT22;61313;48.396;10.008;2022-10-22T05:29:16;13.50;1.00
8253;DHT22;61313;48.396;10.008;2022-10-22T05:31:42;13.50;1.00
8253;DHT22;61313;48.396;10.008;2022-10-22T05:34:07;13.50;1.00
8253;DHT22;61313;48.396;10.008;2022-10-22T05:36:33;13.60;1.00
8253;DHT22;61313;48.396;10.008;2022-10-22T05:38:59;13.60;1.00
8253;DHT22;61313;48.396;10.008;2022-10-22T05:41:26;13.60;1.00
8253;DHT22;61313;48.396;10.008;2022-10-22T05:43:57;13.60;1.00
8253;DHT22;61313;48.396;10.008;2022-10-22T05:46:25;13.60;1.00
8253;DHT22;61313;48.396;10.008;2022-10-22T05:48:59;13.60;1.00
8253;DHT22;61313;48.396;10.008;2022-10-22T05:51:29;13.60;1.00
8253;DHT22;61313;48.396;10.008;2022-10-22T05:54:01;13.60;1.00
8253;DHT22;61313;48.396;10.008;2022-10-22T05:56:28;13.60;1.00
8253;DHT22;61313;48.396;10.008;2022-10-22T05:58:55;13.60;1.00
8253;DHT22;61313;48.396;10.008;2022-10-22T06:01:29;13.60;1.00
8253;DHT22;61313;48.396;10.008;2022-10-22T06:03:58;13.60;1.00
8253;DHT22;61313;48.396;10.008;2022-10-22T06:08:56;13.70;1.00
8253;DHT22;61313;48.396;10.008;2022-10-22T06:11:24;13.60;1.00
8253;DHT22;61313;48.396;10.008;2022-10-22T06:13:50;13.70;1.00
8253;DHT22;61313;48.396;10.008;2022-10-22T06:16:16;13.60;1.00
8253;DHT22;61313;48.396;10.008;2022-10-22T06:18:42;13.70;1.00
8253;DHT22;61313;48.396;10.008;2022-10-22T06:21:10;13.70;1.00
8253;DHT22;61313;48.396;10.008;2022-10-22T06:23:38;13.70;1.00
8253;DHT22;61313;48.396;10.008;2022-10-22T06:26:04;13.70;1.00
8253;DHT22;61313;48.396;10.008;2022-10-22T06:28:30;13.70;1.00
8253;DHT22;61313;48.396;10.008;2022-10-22T06:31:00;13.70;1.00
8253;DHT22;61313;48.396;10.008;2022-10-22T06:33:27;13.70;1.00
8253;DHT22;61313;48.396;10.008;2022-10-22T06:35:53;13.80;1.00
8253;DHT22;61313;48.396;10.008;2022-10-22T06:38:19;13.70;1.00
8253;DHT22;61313;48.396;10.008;2022-10-22T06:40:45;13.70;1.00
8253;DHT22;61313;48.396;10.008;2022-10-22T06:43:11;13.70;1.00
8253;DHT22;61313;48.396;10.008;2022-10-22T06:45:37;13.70;1.00
8253;DHT22;61313;48.396;10.008;2022-10-22T06:48:03;13.60;1.00
8253;DHT22;61313;48.396;10.008;2022-10-22T06:50:29;13.70;1.00
8253;DHT22;61313;48.396;10.008;2022-10-22T06:52:56;13.70;1.00
8253;DHT22;61313;48.396;10.008;2022-10-22T06:55:22;13.70;1.00
8253;DHT22;61313;48.396;10.008;2022-10-22T06:57:47;13.80;1.00
8253;DHT22;61313;48.396;10.008;2022-10-22T07:00:13;13.70;1.00
8253;DHT22;61313;48.396;10.008;2022-10-22T07:02:39;13.80;1.00
8253;DHT22;61313;48.396;10.008;2022-10-22T07:05:05;13.80;1.00
8253;DHT22;61313;48.396;10.008;2022-10-22T07:07:30;13.80;1.00
8253;DHT22;61313;48.396;10.008;2022-10-22T07:09:56;13.80;1.00
8253;DHT22;61313;48.396;10.008;2022-10-22T07:12:22;13.80;1.00
8253;DHT22;61313;48.396;10.008;2022-10-22T07:14:48;13.80;1.00
8253;DHT22;61313;48.396;10.008;2022-10-22T07:17:14;13.80;1.00
8253;DHT22;61313;48.396;10.008;2022-10-22T07:19:40;13.80;1.00
8253;DHT22;61313;48.396;10.008;2022-10-22T07:22:05;13.80;1.00
8253;DHT22;61313;48.396;10.008;2022-10-22T07:24:31;13.90;1.00
8253;DHT22;61313;48.396;10.008;2022-10-22T07:26:57;13.90;1.00
8253;DHT22;61313;48.396;10.008;2022-10-22T07:29:22;13.90;1.00
8253;DHT22;61313;48.396;10.008;2022-10-22T07:31:48;13.90;1.00
8253;DHT22;61313;48.396;10.008;2022-10-22T07:34:14;13.90;1.00
8253;DHT22;61313;48.396;10.008;2022-10-22T07:36:39;14.00;1.00
8253;DHT22;61313;48.396;10.008;2022-10-22T07:39:05;14.00;1.00
8253;DHT22;61313;48.396;10.008;2022-10-22T07:41:31;14.10;1.00
8253;DHT22;61313;48.396;10.008;2022-10-22T07:43:57;14.10;1.00
8253;DHT22;61313;48.396;10.008;2022-10-22T07:46:23;14.10;1.00
8253;DHT22;61313;48.396;10.008;2022-10-22T07:48:49;14.10;1.00
8253;DHT22;61313;48.396;10.008;2022-10-22T07:51:15;14.10;1.00
8253;DHT22;61313;48.396;10.008;2022-10-22T07:53:41;14.10;1.00
8253;DHT22;61313;48.396;10.008;2022-10-22T07:56:07;14.10;1.00
8253;DHT22;61313;48.396;10.008;2022-10-22T07:58:33;14.10;1.00
8253;DHT22;61313;48.396;10.008;2022-10-22T08:01:00;14.20;1.00
8253;DHT22;61313;48.396;10.008;2022-10-22T08:03:27;14.30;1.00
8253;DHT22;61313;48.396;10.008;2022-10-22T08:05:53;14.30;1.00
8253;DHT22;61313;48.396;10.008;2022-10-22T08:08:20;14.50;1.00
8253;DHT22;61313;48.396;10.008;2022-10-22T08:10:47;14.50;1.00
8253;DHT22;61313;48.396;10.008;2022-10-22T08:13:13;14.50;1.00
8253;DHT22;61313;48.396;10.008;2022-10-22T08:15:41;14.60;1.00
8253;DHT22;61313;48.396;10.008;2022-10-22T08:18:07;14.50;1.00
8253;DHT22;61313;48.396;10.008;2022-10-22T08:20:33;14.40;1.00
8253;DHT22;61313;48.396;10.008;2022-10-22T08:22:58;14.50;1.00
8253;DHT22;61313;48.396;10.008;2022-10-22T08:25:24;14.50;1.00
8253;DHT22;61313;48.396;10.008;2022-10-22T08:27:50;14.50;1.00
8253;DHT22;61313;48.396;10.008;2022-10-22T08:30:16;14.80;1.00
8253;DHT22;61313;48.396;10.008;2022-10-22T08:32:42;15.00;1.00
8253;DHT22;61313;48.396;10.008;2022-10-22T08:35:08;15.40;1.00
8253;DHT22;61313;48.396;10.008;2022-10-22T08:37:34;15.80;1.00
8253;DHT22;61313;48.396;10.008;2022-10-22T08:40:00;16.30;1.00
8253;DHT22;61313;48.396;10.008;2022-10-22T08:45:23;16.50;1.00
8253;DHT22;61313;48.396;10.008;2022-10-22T08:50:57;16.60;1.00
8253;DHT22;61313;48.396;10.008;2022-10-22T08:53:46;16.50;1.00
8253;DHT22;61313;48.396;10.008;2022-10-22T08:56:14;16.60;1.00
8253;DHT22;61313;48.396;10.008;2022-10-22T08:58:55;16.50;1.00
8253;DHT22;61313;48.396;10.008;2022-10-22T09:01:37;16.60;1.00
8253;DHT22;61313;48.396;10.008;2022-10-22T09:04:23;17.10;99.90
8253;DHT22;61313;48.396;10.008;2022-10-22T09:06:56;17.70;99.90
8253;DHT22;61313;48.396;10.008;2022-10-22T09:09:26;18.10;99.90
8253;DHT22;61313;48.396;10.008;2022-10-22T09:11:55;18.50;99.90
8253;DHT22;61313;48.396;10.008;2022-10-22T09:14:23;18.80;1.00
8253;DHT22;61313;48.396;10.008;2022-10-22T09:19:55;19.10;1.00
8253;DHT22;61313;48.396;10.008;2022-10-22T09:24:53;19.30;99.90
8253;DHT22;61313;48.396;10.008;2022-10-22T09:27:28;19.70;1.00
8253;DHT22;61313;48.396;10.008;2022-10-22T09:29:54;19.80;1.00
8253;DHT22;61313;48.396;10.008;2022-10-22T09:32:20;19.60;1.00
8253;DHT22;61313;48.396;10.008;2022-10-22T09:34:48;19.80;1.00
8253;DHT22;61313;48.396;10.008;2022-10-22T09:37:17;20.10;99.90
8253;DHT22;61313;48.396;10.008;2022-10-22T09:39:45;20.40;99.90
8253;DHT22;61313;48.396;10.008;2022-10-22T09:42:16;20.60;99.90
8253;DHT22;61313;48.396;10.008;2022-10-22T09:44:42;20.30;70.40
8253;DHT22;61313;48.396;10.008;2022-10-22T09:47:41;20.20;64.00
8253;DHT22;61313;48.396;10.008;2022-10-22T09:50:26;20.50;1.00
8253;DHT22;61313;48.396;10.008;2022-10-22T09:53:20;20.70;1.00
8253;DHT22;61313;48.396;10.008;2022-10-22T09:56:25;20.60;1.00
8253;DHT22;61313;48.396;10.008;2022-10-22T09:58:51;20.60;1.00
8253;DHT22;61313;48.396;10.008;2022-10-22T10:01:30;20.50;1.00
8253;DHT22;61313;48.396;10.008;2022-10-22T10:04:04;20.40;1.00
8253;DHT22;61313;48.396;10.008;2022-10-22T10:06:32;20.10;1.00
8253;DHT22;61313;48.396;10.008;2022-10-22T10:08:59;20.10;1.00
8253;DHT22;61313;48.396;10.008;2022-10-22T10:23:07;19.30;99.90
8253;DHT22;61313;48.396;10.008;2022-10-22T10:39:28;19.30;99.90
8253;DHT22;61313;48.396;10.008;2022-10-22T10:42:00;19.40;99.90
8253;DHT22;61313;48.396;10.008;2022-10-22T10:49:33;19.50;99.90
8253;DHT22;61313;48.396;10.008;2022-10-22T10:52:17;19.40;99.90
8253;DHT22;61313;48.396;10.008;2022-10-22T10:57:54;19.30;99.90
8253;DHT22;61313;48.396;10.008;2022-10-22T11:00:25;19.60;99.90
8253;DHT22;61313;48.396;10.008;2022-10-22T11:05:58;20.10;99.90
8253;DHT22;61313;48.396;10.008;2022-10-22T11:08:37;20.00;26.20
8253;DHT22;61313;48.396;10.008;2022-10-22T11:14:08;20.00;1.00
8253;DHT22;61313;48.396;10.008;2022-10-22T11:16:49;19.80;1.00
8253;DHT22;61313;48.396;10.008;2022-10-22T11:22:01;19.70;1.00
8253;DHT22;61313;48.396;10.008;2022-10-22T11:24:40;19.60;1.00
8253;DHT22;61313;48.396;10.008;2022-10-22T11:29:51;19.60;1.00
8253;DHT22;61313;48.396;10.008;2022-10-22T11:32:20;19.90;1.00
8253;DHT22;61313;48.396;10.008;2022-10-22T11:34:56;20.10;1.00
8253;DHT22;61313;48.396;10.008;2022-10-22T11:37:24;20.10;1.00
8253;DHT22;61313;48.396;10.008;2022-10-22T11:39:53;20.20;1.00
8253;DHT22;61313;48.396;10.008;2022-10-22T11:42:40;19.90;1.00
8253;DHT22;61313;48.396;10.008;2022-10-22T11:55:41;20.10;1.00
8253;DHT22;61313;48.396;10.008;2022-10-22T12:00:55;19.90;1.00
8253;DHT22;61313;48.396;10.008;2022-10-22T12:11:45;20.20;1.00
8253;DHT22;61313;48.396;10.008;2022-10-22T12:14:27;20.30;1.00
8253;DHT22;61313;48.396;10.008;2022-10-22T12:17:13;20.30;1.00
8253;DHT22;61313;48.396;10.008;2022-10-22T12:19:43;20.30;1.00
8253;DHT22;61313;48.396;10.008;2022-10-22T12:24:40;20.50;1.00
8253;DHT22;61313;48.396;10.008;2022-10-22T12:27:31;20.40;1.00
8253;DHT22;61313;48.396;10.008;2022-10-22T12:29:59;20.20;1.00
8253;DHT22;61313;48.396;10.008;2022-10-22T12:32:38;20.00;1.00
8253;DHT22;61313;48.396;10.008;2022-10-22T12:35:19;19.90;1.00
8253;DHT22;61313;48.396;10.008;2022-10-22T12:37:51;19.80;1.00
8253;DHT22;61313;48.396;10.008;2022-10-22T12:40:27;19.60;1.00
8253;DHT22;61313;48.396;10.008;2022-10-22T12:42:56;19.30;1.00
8253;DHT22;61313;48.396;10.008;2022-10-22T12:45:25;19.30;1.00
8253;DHT22;61313;48.396;10.008;2022-10-22T12:47:55;19.30;1.00
8253;DHT22;61313;48.396;10.008;2022-10-22T12:50:39;19.40;1.00
8253;DHT22;61313;48.396;10.008;2022-10-22T12:53:10;19.40;1.00
8253;DHT22;61313;48.396;10.008;2022-10-22T12:55:38;19.40;1.00
8253;DHT22;61313;48.396;10.008;2022-10-22T12:58:05;19.40;1.00
8253;DHT22;61313;48.396;10.008;2022-10-22T13:00:32;19.30;1.00
8253;DHT22;61313;48.396;10.008;2022-10-22T13:03:03;19.10;1.00
8253;DHT22;61313;48.396;10.008;2022-10-22T13:05:33;19.10;1.00
8253;DHT22;61313;48.396;10.008;2022-10-22T13:08:06;19.00;1.00
8253;DHT22;61313;48.396;10.008;2022-10-22T13:10:36;19.10;1.00
8253;DHT22;61313;48.396;10.008;2022-10-22T13:13:02;19.20;1.00
8253;DHT22;61313;48.396;10.008;2022-10-22T13:20:28;19.60;1.00
8253;DHT22;61313;48.396;10.008;2022-10-22T13:23:04;19.50;1.00
8253;DHT22;61313;48.396;10.008;2022-10-22T13:25:31;19.30;1.00
8253;DHT22;61313;48.396;10.008;2022-10-22T13:28:01;19.10;1.00
8253;DHT22;61313;48.396;10.008;2022-10-22T13:30:30;19.00;1.00
8253;DHT22;61313;48.396;10.008;2022-10-22T13:33:23;18.90;1.00
8253;DHT22;61313;48.396;10.008;2022-10-22T13:35:54;18.80;1.00
8253;DHT22;61313;48.396;10.008;2022-10-22T13:38:22;18.90;1.00
8253;DHT22;61313;48.396;10.008;2022-10-22T13:40:48;18.90;1.00
8253;DHT22;61313;48.396;10.008;2022-10-22T13:43:15;19.00;1.00
8253;DHT22;61313;48.396;10.008;2022-10-22T13:45:42;19.00;1.00
8253;DHT22;61313;48.396;10.008;2022-10-22T13:48:15;19.10;1.00
8253;DHT22;61313;48.396;10.008;2022-10-22T13:50:41;19.00;1.00
8253;DHT22;61313;48.396;10.008;2022-10-22T13:53:13;19.10;1.00
8253;DHT22;61313;48.396;10.008;2022-10-22T13:55:43;19.10;1.00
8253;DHT22;61313;48.396;10.008;2022-10-22T13:58:14;19.10;1.00
8253;DHT22;61313;48.396;10.008;2022-10-22T14:00:48;19.10;1.00
8253;DHT22;61313;48.396;10.008;2022-10-22T14:03:19;19.20;1.00
8253;DHT22;61313;48.396;10.008;2022-10-22T14:05:47;19.20;1.00
8253;DHT22;61313;48.396;10.008;2022-10-22T14:08:16;19.20;1.00
8253;DHT22;61313;48.396;10.008;2022-10-22T14:10:42;19.20;1.00
8253;DHT22;61313;48.396;10.008;2022-10-22T14:13:14;19.20;1.00
8253;DHT22;61313;48.396;10.008;2022-10-22T14:15:41;19.10;1.00
8253;DHT22;61313;48.396;10.008;2022-10-22T14:18:11;19.00;1.00
8253;DHT22;61313;48.396;10.008;2022-10-22T14:20:39;18.90;1.00
8253;DHT22;61313;48.396;10.008;2022-10-22T14:23:14;18.80;1.00
8253;DHT22;61313;48.396;10.008;2022-10-22T14:25:43;18.90;1.00
8253;DHT22;61313;48.396;10.008;2022-10-22T14:28:10;18.90;1.00
8253;DHT22;61313;48.396;10.008;2022-10-22T14:30:37;19.00;1.00
8253;DHT22;61313;48.396;10.008;2022-10-22T14:33:29;19.00;1.00
8253;DHT22;61313;48.396;10.008;2022-10-22T14:35:55;19.10;1.00
8253;DHT22;61313;48.396;10.008;2022-10-22T14:38:21;19.10;1.00
8253;DHT22;61313;48.396;10.008;2022-10-22T14:40:48;19.10;1.00
8253;DHT22;61313;48.396;10.008;2022-10-22T14:43:23;19.00;1.00
8253;DHT22;61313;48.396;10.008;2022-10-22T14:45:49;19.10;1.00
8253;DHT22;61313;48.396;10.008;2022-10-22T14:48:16;19.10;1.00
8253;DHT22;61313;48.396;10.008;2022-10-22T14:50:42;19.00;1.00
8253;DHT22;61313;48.396;10.008;2022-10-22T14:53:08;18.90;1.00
8253;DHT22;61313;48.396;10.008;2022-10-22T14:55:34;18.80;1.00
8253;DHT22;61313;48.396;10.008;2022-10-22T14:58:00;18.80;1.00
8253;DHT22;61313;48.396;10.008;2022-10-22T15:00:26;18.80;1.00
8253;DHT22;61313;48.396;10.008;2022-10-22T15:02:52;18.80;1.00
8253;DHT22;61313;48.396;10.008;2022-10-22T15:05:20;18.80;1.00
8253;DHT22;61313;48.396;10.008;2022-10-22T15:07:46;18.80;1.00
8253;DHT22;61313;48.396;10.008;2022-10-22T15:10:12;18.90;1.00
8253;DHT22;61313;48.396;10.008;2022-10-22T15:12:38;18.90;1.00
8253;DHT22;61313;48.396;10.008;2022-10-22T15:15:04;18.80;1.00
8253;DHT22;61313;48.396;10.008;2022-10-22T15:17:30;18.70;1.00
8253;DHT22;61313;48.396;10.008;2022-10-22T15:19:56;18.70;1.00
8253;DHT22;61313;48.396;10.008;2022-10-22T15:22:24;18.70;1.00
8253;DHT22;61313;48.396;10.008;2022-10-22T15:24:50;18.80;1.00
8253;DHT22;61313;48.396;10.008;2022-10-22T15:27:18;18.70;1.00
8253;DHT22;61313;48.396;10.008;2022-10-22T15:29:43;18.70;1.00
8253;DHT22;61313;48.396;10.008;2022-10-22T15:32:09;18.70;1.00
8253;DHT22;61313;48.396;10.008;2022-10-22T15:34:37;18.60;1.00
8253;DHT22;61313;48.396;10.008;2022-10-22T15:37:06;18.70;1.00
8253;DHT22;61313;48.396;10.008;2022-10-22T15:39:32;18.60;1.00
8253;DHT22;61313;48.396;10.008;2022-10-22T15:41:58;18.50;1.00
8253;DHT22;61313;48.396;10.008;2022-10-22T15:44:29;18.40;1.00
8253;DHT22;61313;48.396;10.008;2022-10-22T15:46:55;18.40;32.80
8253;DHT22;61313;48.396;10.008;2022-10-22T15:49:23;18.40;94.80
8253;DHT22;61313;48.396;10.008;2022-10-22T15:51:50;18.30;99.90
8253;DHT22;61313;48.396;10.008;2022-10-22T15:54:18;18.30;99.90
8253;DHT22;61313;48.396;10.008;2022-10-22T15:56:44;18.30;99.90
8253;DHT22;61313;48.396;10.008;2022-10-22T15:59:11;18.30;99.90
8253;DHT22;61313;48.396;10.008;2022-10-22T16:01:38;18.20;99.90
8253;DHT22;61313;48.396;10.008;2022-10-22T16:04:05;18.20;99.90
8253;DHT22;61313;48.396;10.008;2022-10-22T16:06:41;18.10;99.90
8253;DHT22;61313;48.396;10.008;2022-10-22T16:09:09;18.10;1.00
8253;DHT22;61313;48.396;10.008;2022-10-22T16:11:36;18.00;1.00
8253;DHT22;61313;48.396;10.008;2022-10-22T16:14:02;18.00;1.00
8253;DHT22;61313;48.396;10.008;2022-10-22T16:16:30;17.90;1.00
8253;DHT22;61313;48.396;10.008;2022-10-22T16:18:56;17.90;1.00
8253;DHT22;61313;48.396;10.008;2022-10-22T16:21:23;17.90;1.00
8253;DHT22;61313;48.396;10.008;2022-10-22T16:23:49;17.80;34.10
8253;DHT22;61313;48.396;10.008;2022-10-22T16:26:17;17.80;99.90
8253;DHT22;61313;48.396;10.008;2022-10-22T16:28:43;17.70;99.90
8253;DHT22;61313;48.396;10.008;2022-10-22T16:31:11;17.70;99.90
8253;DHT22;61313;48.396;10.008;2022-10-22T16:33:38;17.60;99.90
8253;DHT22;61313;48.396;10.008;2022-10-22T16:36:05;17.60;1.00
8253;DHT22;61313;48.396;10.008;2022-10-22T16:38:31;17.60;1.00
8253;DHT22;61313;48.396;10.008;2022-10-22T16:41:21;17.50;1.00
8253;DHT22;61313;48.396;10.008;2022-10-22T16:43:49;17.50;1.00
8253;DHT22;61313;48.396;10.008;2022-10-22T16:46:16;17.40;22.80
8253;DHT22;61313;48.396;10.008;2022-10-22T16:48:51;17.40;99.90
8253;DHT22;61313;48.396;10.008;2022-10-22T16:51:20;17.30;99.90
8253;DHT22;61313;48.396;10.008;2022-10-22T16:53:46;17.30;99.90
8253;DHT22;61313;48.396;10.008;2022-10-22T16:56:13;17.20;1.00
8253;DHT22;61313;48.396;10.008;2022-10-22T16:58:44;17.10;1.00
8253;DHT22;61313;48.396;10.008;2022-10-22T17:01:11;17.00;99.90
8253;DHT22;61313;48.396;10.008;2022-10-22T17:03:37;16.90;1.00
8253;DHT22;61313;48.396;10.008;2022-10-22T17:06:03;16.90;99.90
8253;DHT22;61313;48.396;10.008;2022-10-22T17:08:30;16.90;1.00
8253;DHT22;61313;48.396;10.008;2022-10-22T17:11:08;16.80;1.00
8253;DHT22;61313;48.396;10.008;2022-10-22T17:13:34;16.80;71.20
8253;DHT22;61313;48.396;10.008;2022-10-22T17:16:04;16.70;99.90
8253;DHT22;61313;48.396;10.008;2022-10-22T17:18:30;16.70;1.00
8253;DHT22;61313;48.396;10.008;2022-10-22T17:20:56;16.60;1.00
8253;DHT22;61313;48.396;10.008;2022-10-22T17:23:24;16.60;1.00
8253;DHT22;61313;48.396;10.008;2022-10-22T17:26:00;16.50;1.00
8253;DHT22;61313;48.396;10.008;2022-10-22T17:28:27;16.60;1.00
8253;DHT22;61313;48.396;10.008;2022-10-22T17:31:07;16.50;1.00
8253;DHT22;61313;48.396;10.008;2022-10-22T17:33:34;16.60;1.00
8253;DHT22;61313;48.396;10.008;2022-10-22T17:36:01;16.60;1.00
8253;DHT22;61313;48.396;10.008;2022-10-22T17:38:27;16.50;58.20
8253;DHT22;61313;48.396;10.008;2022-10-22T17:40:53;16.40;99.90
8253;DHT22;61313;48.396;10.008;2022-10-22T17:43:19;16.40;99.90
8253;DHT22;61313;48.396;10.008;2022-10-22T17:45:44;16.40;99.90
8253;DHT22;61313;48.396;10.008;2022-10-22T17:48:10;16.40;99.90